Time;durP1;ratioP1;P1;durP2;ratioP2;P2;SDS_P1;SDS_P2;PMS_P1;PMS_P2;Temp;Humidity;BMP_temperature;BMP_pressure;BME280_temperature;BME280_humidity;BME280_pressure;Samples;Min_cycle;Max_cycle;Signal;HPM_P1;HPM_P2
2023/10/29 00:00:18;;;;;;;9.17;6.73;;;;;;;;;;4963524;28;20214;-87
2023/10/29 00:02:48;;;;;;;10.20;7.10;;;;;;;;;;4986267;28;20225;-86
2023/10/29 00:05:18;;;;;;;9.30;6.90;;;;;;;;;;4982035;28;20703;-83
2023/10/29 00:07:44;;;;;;;7.13;6.43;;;;;;;;;;4974870;28;20225;-85
2023/10/29 00:10:12;;;;;;;8.67;7.07;;;;;;;;;;4942146;28;20218;-86
2023/10/29 00:12:40;;;;;;;9.63;6.30;;;;;;;;;;4979780;28;20221;-85
2023/10/29 00:15:06;;;;;;;12.73;7.40;;;;;;;;;;4945984;28;20268;-86
2023/10/29 00:17:32;;;;;;;11.30;7.10;;;;;;;;;;4984020;28;20245;-87
2023/10/29 00:20:00;;;;;;;8.87;7.00;;;;;;;;;;4953651;28;20223;-83
2023/10/29 00:22:27;;;;;;;10.80;6.90;;;;;;;;;;4983056;28;20531;-85
2023/10/29 00:24:52;;;;;;;7.77;6.53;;;;;;;;;;4963389;28;20228;-87
2023/10/29 00:27:18;;;;;;;9.27;6.37;;;;;;;;;;4965718;28;20225;-83
2023/10/29 00:29:45;;;;;;;6.83;6.23;;;;;;;;;;4952777;28;20221;-85
2023/10/29 00:32:14;;;;;;;9.80;7.47;;;;;;;;;;4958958;28;20212;-88
2023/10/29 00:34:42;;;;;;;8.00;6.73;;;;;;;;;;4964480;28;20221;-85
2023/10/29 00:37:09;;;;;;;9.47;6.07;;;;;;;;;;4975644;28;20225;-86
2023/10/29 00:39:35;;;;;;;15.90;6.63;;;;;;;;;;4999730;28;20639;-87
2023/10/29 00:42:01;;;;;;;7.13;6.43;;;;;;;;;;4983443;28;20270;-85
2023/10/29 00:44:26;;;;;;;7.67;6.33;;;;;;;;;;4961259;28;20217;-82
2023/10/29 00:46:52;;;;;;;8.80;6.50;;;;;;;;;;4984209;28;20604;-85
2023/10/29 00:49:21;;;;;;;11.97;6.40;;;;;;;;;;4966645;28;20236;-86
2023/10/29 00:51:49;;;;;;;9.97;6.87;;;;;;;;;;4946457;28;20220;-83
2023/10/29 00:54:14;;;;;;;10.73;7.03;;;;;;;;;;4984231;28;20242;-87
2023/10/29 00:56:42;;;;;;;8.93;6.37;;;;;;;;;;4958270;28;21320;-85
2023/10/29 00:59:11;;;;;;;6.40;5.80;;;;;;;;;;4952522;28;20205;-86
2023/10/29 01:01:37;;;;;;;9.23;6.20;;;;;;;;;;4964320;28;20240;-84
2023/10/29 01:04:06;;;;;;;6.60;5.90;;;;;;;;;;4955624;28;20218;-85
2023/10/29 01:06:38;;;;;;;7.70;5.97;;;;;;;;;;4961986;28;20785;-84
2023/10/29 01:09:05;;;;;;;6.40;5.80;;;;;;;;;;4965678;28;20855;-83
2023/10/29 01:11:32;;;;;;;8.47;5.93;;;;;;;;;;4944442;28;20240;-85
2023/10/29 01:13:58;;;;;;;7.20;5.60;;;;;;;;;;4963218;28;20220;-85
2023/10/29 01:16:23;;;;;;;6.63;5.50;;;;;;;;;;4976216;28;20284;-83
2023/10/29 01:18:54;;;;;;;5.90;5.40;;;;;;;;;;4976010;28;20240;-84
2023/10/29 01:21:24;;;;;;;7.07;5.60;;;;;;;;;;4967315;28;20223;-83
2023/10/29 01:23:54;;;;;;;6.63;4.93;;;;;;;;;;4973728;28;20253;-83
2023/10/29 01:26:21;;;;;;;7.70;5.40;;;;;;;;;;4976698;28;20218;-84
2023/10/29 01:28:47;;;;;;;12.53;5.70;;;;;;;;;;4952340;28;20229;-83
2023/10/29 01:31:13;;;;;;;7.57;5.60;;;;;;;;;;4959796;28;20222;-83
2023/10/29 01:33:41;;;;;;;8.23;5.23;;;;;;;;;;4942081;28;20222;-83
2023/10/29 01:36:07;;;;;;;6.07;4.83;;;;;;;;;;4963503;28;20235;-83
2023/10/29 01:38:33;;;;;;;6.27;5.47;;;;;;;;;;4947652;28;20225;-84
2023/10/29 01:41:01;;;;;;;15.07;5.50;;;;;;;;;;4941670;28;20698;-85
2023/10/29 01:43:27;;;;;;;11.97;5.50;;;;;;;;;;4958084;28;20213;-85
2023/10/29 01:45:52;;;;;;;7.10;5.20;;;;;;;;;;4944319;28;20597;-84
2023/10/29 01:48:23;;;;;;;5.43;4.93;;;;;;;;;;4975297;28;20910;-87
2023/10/29 01:50:50;;;;;;;7.00;5.20;;;;;;;;;;4943092;28;20226;-84
2023/10/29 01:53:16;;;;;;;7.07;5.27;;;;;;;;;;4943556;28;20637;-85
2023/10/29 01:55:41;;;;;;;5.50;5.00;;;;;;;;;;4956619;28;20304;-83
2023/10/29 01:58:07;;;;;;;6.37;5.13;;;;;;;;;;4955216;28;20229;-86
2023/10/29 02:00:32;;;;;;;10.13;5.50;;;;;;;;;;4977316;28;20244;-85
2023/10/29 02:03:01;;;;;;;6.97;4.93;;;;;;;;;;4988818;28;20678;-84
2023/10/29 02:05:26;;;;;;;5.87;4.70;;;;;;;;;;4963066;28;20245;-85
2023/10/29 02:07:57;;;;;;;11.53;4.73;;;;;;;;;;4969266;28;20225;-85
2023/10/29 02:10:25;;;;;;;5.93;5.03;;;;;;;;;;4972478;28;20225;-86
2023/10/29 02:12:53;;;;;;;5.03;4.50;;;;;;;;;;4964041;28;20222;-84
2023/10/29 02:15:18;;;;;;;9.17;4.97;;;;;;;;;;4958541;28;20304;-86
2023/10/29 02:17:44;;;;;;;6.97;5.27;;;;;;;;;;4953778;28;20291;-86
2023/10/29 02:20:12;;;;;;;6.43;4.83;;;;;;;;;;4976385;28;20217;-86
2023/10/29 02:22:40;;;;;;;7.77;5.03;;;;;;;;;;4957990;28;20224;-86
2023/10/29 02:25:07;;;;;;;7.20;5.33;;;;;;;;;;4957825;28;20229;-87
2023/10/29 02:27:33;;;;;;;5.10;4.57;;;;;;;;;;4948579;28;20251;-86
2023/10/29 02:30:00;;;;;;;6.03;4.90;;;;;;;;;;4950053;28;20301;-87
2023/10/29 02:32:27;;;;;;;5.70;4.87;;;;;;;;;;4953451;28;20228;-88
2023/10/29 02:34:55;;;;;;;5.87;4.50;;;;;;;;;;4960342;28;20764;-86
2023/10/29 02:37:23;;;;;;;5.40;4.80;;;;;;;;;;4968150;28;20220;-86
2023/10/29 02:39:51;;;;;;;6.70;4.80;;;;;;;;;;4945263;28;20273;-86
2023/10/29 02:42:17;;;;;;;5.67;4.73;;;;;;;;;;4953419;28;20217;-89
2023/10/29 02:44:47;;;;;;;4.97;4.47;;;;;;;;;;4960824;28;20226;-84
2023/10/29 02:47:13;;;;;;;6.23;5.40;;;;;;;;;;4988130;28;20698;-87
2023/10/29 02:49:39;;;;;;;5.07;4.60;;;;;;;;;;4944541;28;20293;-88
2023/10/29 02:52:05;;;;;;;6.70;5.53;;;;;;;;;;4963213;28;20283;-86
2023/10/29 02:54:32;;;;;;;4.57;4.17;;;;;;;;;;4959410;28;20218;-85
2023/10/29 02:57:00;;;;;;;6.07;5.10;;;;;;;;;;4946106;28;20328;-86
2023/10/29 02:59:26;;;;;;;5.60;5.10;;;;;;;;;;4947202;28;20222;-86
2023/10/29 03:01:51;;;;;;;5.30;4.80;;;;;;;;;;4983921;28;20274;-87
2023/10/29 03:04:19;;;;;;;7.40;5.30;;;;;;;;;;4985623;28;20214;-86
2023/10/29 03:06:47;;;;;;;4.27;3.87;;;;;;;;;;4979412;28;20230;-86
2023/10/29 03:09:14;;;;;;;5.30;4.53;;;;;;;;;;4979510;28;20237;-87
2023/10/29 03:11:40;;;;;;;4.90;4.43;;;;;;;;;;4965648;28;20579;-88
2023/10/29 03:14:05;;;;;;;4.23;3.83;;;;;;;;;;4959699;28;20706;-84
2023/10/29 03:16:31;;;;;;;5.40;4.67;;;;;;;;;;4967922;28;20221;-87
2023/10/29 03:18:59;;;;;;;5.27;4.00;;;;;;;;;;4955241;28;20227;-86
2023/10/29 03:21:24;;;;;;;5.37;4.37;;;;;;;;;;4945042;28;20670;-84
2023/10/29 03:23:52;;;;;;;5.03;4.50;;;;;;;;;;4949410;28;20236;-83
2023/10/29 03:26:18;;;;;;;4.70;4.27;;;;;;;;;;4980599;28;20301;-87
2023/10/29 03:28:45;;;;;;;6.40;4.80;;;;;;;;;;4970243;28;20698;-87
2023/10/29 03:31:15;;;;;;;5.17;4.67;;;;;;;;;;4964650;28;20302;-85
2023/10/29 03:33:45;;;;;;;6.20;5.20;;;;;;;;;;4984837;28;20218;-85
2023/10/29 03:36:12;;;;;;;5.63;5.07;;;;;;;;;;4967128;28;20291;-86
2023/10/29 03:38:38;;;;;;;5.63;4.50;;;;;;;;;;4973610;28;20234;-88
2023/10/29 03:41:03;;;;;;;5.60;4.63;;;;;;;;;;4971071;28;20221;-84
2023/10/29 03:43:29;;;;;;;6.60;5.27;;;;;;;;;;4960433;28;20288;-85
2023/10/29 03:45:57;;;;;;;5.60;4.80;;;;;;;;;;4951800;28;20218;-87
2023/10/29 03:48:22;;;;;;;5.03;4.40;;;;;;;;;;4965900;28;20213;-85
2023/10/29 03:50:48;;;;;;;9.23;4.77;;;;;;;;;;4933149;28;1114657;-87
2023/10/29 03:53:13;;;;;;;7.43;4.87;;;;;;;;;;4965823;28;20760;-88
2023/10/29 03:55:39;;;;;;;6.47;4.97;;;;;;;;;;4954463;28;20234;-87
2023/10/29 03:58:05;;;;;;;6.10;5.33;;;;;;;;;;4949149;28;20221;-84
2023/10/29 04:04:17;;;;;;;6.67;4.70;;;;;;;;;;5004650;28;20212;-88
2023/10/29 04:06:45;;;;;;;5.40;4.90;;;;;;;;;;4968641;28;20226;-87
2023/10/29 04:09:13;;;;;;;6.33;4.53;;;;;;;;;;4963715;28;20682;-87
2023/10/29 04:11:40;;;;;;;8.17;4.80;;;;;;;;;;4946258;28;20228;-87
2023/10/29 04:14:09;;;;;;;5.50;4.57;;;;;;;;;;4949391;28;20206;-87
2023/10/29 04:16:37;;;;;;;5.00;4.30;;;;;;;;;;4960600;28;20237;-87
2023/10/29 04:19:02;;;;;;;5.43;4.93;;;;;;;;;;4996566;28;20717;-87
2023/10/29 04:21:30;;;;;;;4.90;4.50;;;;;;;;;;4967515;28;20225;-87
2023/10/29 04:23:55;;;;;;;4.57;4.17;;;;;;;;;;4948795;28;20193;-86
2023/10/29 04:26:21;;;;;;;4.50;4.10;;;;;;;;;;4957955;28;20218;-83
2023/10/29 04:28:47;;;;;;;10.13;4.47;;;;;;;;;;4993262;28;20293;-86
2023/10/29 04:31:19;;;;;;;4.93;4.33;;;;;;;;;;4985161;28;20725;-86
2023/10/29 04:33:49;;;;;;;5.47;4.30;;;;;;;;;;4961162;28;20225;-84
2023/10/29 04:36:24;;;;;;;4.80;4.00;;;;;;;;;;4958731;28;20253;-85
2023/10/29 04:38:49;;;;;;;4.67;4.03;;;;;;;;;;4963837;28;20256;-86
2023/10/29 04:41:20;;;;;;;5.07;4.17;;;;;;;;;;4984650;28;20217;-88
2023/10/29 04:43:46;;;;;;;4.87;4.20;;;;;;;;;;4963887;28;20232;-87
2023/10/29 04:46:13;;;;;;;4.90;3.97;;;;;;;;;;4979860;28;20223;-87
2023/10/29 04:48:41;;;;;;;3.93;3.53;;;;;;;;;;4957800;28;20229;-88
2023/10/29 04:51:07;;;;;;;4.27;3.57;;;;;;;;;;4971727;28;20225;-87
2023/10/29 04:53:34;;;;;;;3.83;3.43;;;;;;;;;;4972434;28;20371;-84
2023/10/29 04:56:05;;;;;;;3.60;3.30;;;;;;;;;;4976220;28;20247;-83
2023/10/29 04:58:33;;;;;;;5.37;3.50;;;;;;;;;;4962034;28;20241;-87
2023/10/29 05:01:01;;;;;;;4.23;3.30;;;;;;;;;;4972175;28;20615;-83
2023/10/29 05:03:27;;;;;;;7.17;3.23;;;;;;;;;;4963329;28;20221;-85
2023/10/29 05:05:54;;;;;;;5.03;2.80;;;;;;;;;;4955335;28;20683;-87
2023/10/29 05:08:20;;;;;;;3.33;3.03;;;;;;;;;;4941934;28;20241;-86
2023/10/29 05:10:48;;;;;;;3.23;2.93;;;;;;;;;;4989263;28;20283;-84
2023/10/29 05:13:13;;;;;;;3.43;3.10;;;;;;;;;;4973150;28;20710;-85
2023/10/29 05:15:41;;;;;;;4.70;3.30;;;;;;;;;;4968767;28;20217;-85
2023/10/29 05:18:07;;;;;;;5.43;3.00;;;;;;;;;;4959735;28;20879;-87
2023/10/29 05:20:37;;;;;;;5.33;2.80;;;;;;;;;;4980807;28;20221;-86
2023/10/29 05:23:03;;;;;;;3.40;2.90;;;;;;;;;;4971874;28;20220;-83
2023/10/29 05:25:29;;;;;;;3.33;2.90;;;;;;;;;;4948986;28;20217;-85
2023/10/29 05:27:55;;;;;;;2.93;2.43;;;;;;;;;;4969303;28;20241;-85
2023/10/29 05:30:23;;;;;;;3.70;2.90;;;;;;;;;;4965823;28;20625;-88
2023/10/29 05:32:55;;;;;;;5.27;2.80;;;;;;;;;;4966484;28;20253;-83
2023/10/29 05:35:24;;;;;;;3.17;2.70;;;;;;;;;;4956731;28;20221;-85
2023/10/29 05:37:51;;;;;;;3.90;2.53;;;;;;;;;;4974255;28;20228;-87
2023/10/29 05:40:17;;;;;;;3.40;3.10;;;;;;;;;;4999182;28;20269;-84
2023/10/29 05:42:47;;;;;;;4.57;2.87;;;;;;;;;;4996330;28;20293;-85
2023/10/29 05:45:13;;;;;;;4.93;2.90;;;;;;;;;;4984346;28;20275;-86
2023/10/29 05:47:39;;;;;;;4.03;3.00;;;;;;;;;;4982951;28;20214;-84
2023/10/29 05:50:05;;;;;;;2.90;2.60;;;;;;;;;;4987458;28;20218;-85
2023/10/29 05:52:30;;;;;;;5.23;2.93;;;;;;;;;;4995759;28;20233;-85
2023/10/29 05:55:02;;;;;;;3.57;2.93;;;;;;;;;;4980143;28;20232;-86
2023/10/29 05:57:28;;;;;;;3.93;3.07;;;;;;;;;;4956211;28;20613;-86
2023/10/29 05:59:56;;;;;;;4.33;3.03;;;;;;;;;;4982289;28;20232;-87
2023/10/29 06:02:24;;;;;;;8.13;2.60;;;;;;;;;;4951023;28;20213;-88
2023/10/29 06:04:50;;;;;;;2.90;2.50;;;;;;;;;;4963747;28;20251;-87
2023/10/29 06:07:15;;;;;;;4.67;2.93;;;;;;;;;;4987016;28;20658;-87
2023/10/29 06:09:40;;;;;;;3.77;2.80;;;;;;;;;;4976788;28;20221;-88
2023/10/29 06:12:08;;;;;;;3.43;2.50;;;;;;;;;;4974200;28;20234;-87
2023/10/29 06:14:33;;;;;;;4.20;2.83;;;;;;;;;;4979171;28;20596;-89
2023/10/29 06:16:59;;;;;;;3.97;2.90;;;;;;;;;;4963206;28;20234;-88
2023/10/29 06:19:25;;;;;;;2.93;2.60;;;;;;;;;;4962915;28;20226;-86
2023/10/29 06:21:52;;;;;;;6.10;2.87;;;;;;;;;;4977960;28;20233;-87
2023/10/29 06:24:18;;;;;;;2.87;2.47;;;;;;;;;;4964450;28;20228;-88
2023/10/29 06:26:47;;;;;;;6.43;2.53;;;;;;;;;;4983692;28;20234;-88
2023/10/29 06:29:12;;;;;;;2.73;2.53;;;;;;;;;;4958197;28;20749;-87
2023/10/29 06:31:38;;;;;;;2.87;2.50;;;;;;;;;;4970270;28;20225;-88
2023/10/29 06:34:03;;;;;;;3.83;2.53;;;;;;;;;;4957688;28;20305;-86
2023/10/29 06:36:31;;;;;;;6.67;2.30;;;;;;;;;;4965083;28;20233;-85
2023/10/29 06:38:59;;;;;;;5.53;2.40;;;;;;;;;;4987786;28;20226;-90
2023/10/29 06:41:25;;;;;;;3.03;2.37;;;;;;;;;;4949214;28;20264;-86
2023/10/29 06:43:52;;;;;;;2.10;1.90;;;;;;;;;;4988692;28;20907;-88
2023/10/29 06:46:24;;;;;;;2.90;2.37;;;;;;;;;;4970837;28;20284;-85
2023/10/29 06:48:50;;;;;;;5.60;2.60;;;;;;;;;;4991772;28;20217;-86
2023/10/29 06:51:19;;;;;;;3.67;2.70;;;;;;;;;;4956357;28;20716;-85
2023/10/29 06:53:45;;;;;;;5.13;2.50;;;;;;;;;;4954410;28;20229;-86
2023/10/29 06:56:15;;;;;;;6.10;5.10;;;;;;;;;;4993458;28;20234;-86
2023/10/29 06:58:43;;;;;;;4.70;3.53;;;;;;;;;;4943891;28;20238;-87
2023/10/29 07:01:09;;;;;;;4.27;2.63;;;;;;;;;;4947589;28;20229;-87
2023/10/29 07:03:35;;;;;;;2.67;2.20;;;;;;;;;;4953899;28;20228;-88
2023/10/29 07:06:10;;;;;;;7.00;2.50;;;;;;;;;;4978118;28;20217;-87
2023/10/29 07:08:38;;;;;;;2.90;2.23;;;;;;;;;;4963102;28;20216;-88
2023/10/29 07:11:06;;;;;;;6.53;2.33;;;;;;;;;;4943856;28;20249;-84
2023/10/29 07:13:34;;;;;;;3.10;2.40;;;;;;;;;;4962180;28;20235;-84
2023/10/29 07:16:04;;;;;;;2.43;2.23;;;;;;;;;;4966904;28;20232;-86
2023/10/29 07:18:32;;;;;;;2.43;2.30;;;;;;;;;;4964971;28;20225;-87
2023/10/29 07:21:00;;;;;;;2.67;2.13;;;;;;;;;;4953377;28;20221;-84
2023/10/29 07:23:26;;;;;;;2.60;2.17;;;;;;;;;;4966253;28;20664;-84
2023/10/29 07:25:59;;;;;;;4.40;2.50;;;;;;;;;;4939584;28;20229;-85
2023/10/29 07:28:25;;;;;;;1.90;1.80;;;;;;;;;;4956329;28;20229;-86
2023/10/29 07:30:50;;;;;;;3.43;1.87;;;;;;;;;;4963215;28;20235;-87
2023/10/29 07:33:16;;;;;;;3.40;3.10;;;;;;;;;;4953077;28;20230;-84
2023/10/29 07:35:45;;;;;;;2.00;1.80;;;;;;;;;;4951864;28;20229;-86
2023/10/29 07:38:12;;;;;;;2.63;2.27;;;;;;;;;;4967272;28;20229;-85
2023/10/29 07:40:38;;;;;;;3.80;2.30;;;;;;;;;;4977241;28;20224;-86
2023/10/29 07:43:04;;;;;;;2.20;1.90;;;;;;;;;;4955367;28;20232;-86
2023/10/29 07:45:30;;;;;;;2.77;1.97;;;;;;;;;;4978068;28;20303;-85
2023/10/29 07:47:56;;;;;;;4.50;2.00;;;;;;;;;;4964404;28;20230;-86
2023/10/29 07:50:24;;;;;;;2.33;1.80;;;;;;;;;;4965400;28;20221;-88
2023/10/29 07:52:50;;;;;;;2.30;2.10;;;;;;;;;;4953966;28;20240;-86
2023/10/29 07:55:15;;;;;;;2.77;1.97;;;;;;;;;;4976445;28;20942;-88
2023/10/29 07:57:41;;;;;;;2.50;1.70;;;;;;;;;;4969167;28;20226;-87
2023/10/29 08:00:09;;;;;;;1.90;1.80;;;;;;;;;;4958621;28;20613;-86
2023/10/29 08:02:40;;;;;;;3.83;2.03;;;;;;;;;;4960045;28;20222;-84
2023/10/29 08:05:10;;;;;;;3.53;2.20;;;;;;;;;;4949620;28;20221;-88
2023/10/29 08:07:37;;;;;;;2.03;1.70;;;;;;;;;;4956361;28;20238;-85
2023/10/29 08:10:03;;;;;;;3.43;2.27;;;;;;;;;;4988224;28;20221;-87
2023/10/29 08:12:30;;;;;;;3.93;2.10;;;;;;;;;;4964474;28;20218;-86
2023/10/29 08:14:58;;;;;;;3.33;2.13;;;;;;;;;;4946175;28;20225;-86
2023/10/29 08:17:23;;;;;;;2.83;1.73;;;;;;;;;;4950399;28;20238;-86
2023/10/29 08:19:52;;;;;;;1.93;1.43;;;;;;;;;;4973082;28;20295;-86
2023/10/29 08:22:17;;;;;;;3.10;1.87;;;;;;;;;;4957445;28;20231;-85
2023/10/29 08:24:43;;;;;;;3.50;1.63;;;;;;;;;;4969350;28;20232;-85
2023/10/29 08:27:12;;;;;;;2.53;1.77;;;;;;;;;;4988676;28;20245;-83
2023/10/29 08:29:40;;;;;;;2.13;1.90;;;;;;;;;;4992999;28;20222;-88
2023/10/29 08:32:08;;;;;;;1.67;1.57;;;;;;;;;;4969853;28;20222;-84
2023/10/29 08:34:34;;;;;;;2.33;1.60;;;;;;;;;;4992433;28;20228;-88
2023/10/29 08:37:02;;;;;;;2.07;1.70;;;;;;;;;;4975361;28;20221;-87
2023/10/29 08:39:31;;;;;;;3.67;1.87;;;;;;;;;;4979652;28;20217;-86
2023/10/29 08:41:57;;;;;;;2.03;1.77;;;;;;;;;;4981332;28;20222;-87
2023/10/29 08:44:22;;;;;;;2.33;1.40;;;;;;;;;;4963718;28;20790;-86
2023/10/29 08:46:48;;;;;;;2.20;1.50;;;;;;;;;;4987634;28;20243;-86
2023/10/29 08:49:13;;;;;;;1.40;1.30;;;;;;;;;;4988521;28;20225;-88
2023/10/29 08:51:39;;;;;;;1.43;1.33;;;;;;;;;;4964729;28;20249;-87
2023/10/29 08:54:05;;;;;;;1.87;1.40;;;;;;;;;;4962567;28;20845;-89
2023/10/29 08:56:37;;;;;;;1.87;1.47;;;;;;;;;;4967664;28;20237;-86
2023/10/29 08:59:05;;;;;;;2.37;1.40;;;;;;;;;;4952651;28;20292;-85
2023/10/29 09:01:34;;;;;;;2.03;1.30;;;;;;;;;;4963658;28;20213;-87
2023/10/29 09:03:59;;;;;;;2.00;1.30;;;;;;;;;;4971625;28;20285;-88
2023/10/29 09:06:29;;;;;;;1.30;1.20;;;;;;;;;;4955591;28;20237;-84
2023/10/29 09:08:57;;;;;;;3.13;1.43;;;;;;;;;;4978128;28;20300;-89
2023/10/29 09:11:25;;;;;;;1.40;1.20;;;;;;;;;;4940203;28;20222;-86
2023/10/29 09:13:53;;;;;;;2.73;1.50;;;;;;;;;;4978807;28;20221;-85
2023/10/29 09:16:19;;;;;;;2.00;1.47;;;;;;;;;;4986718;28;20237;-87
2023/10/29 09:18:47;;;;;;;3.60;1.10;;;;;;;;;;4994038;28;20234;-86
2023/10/29 09:21:15;;;;;;;2.30;1.10;;;;;;;;;;4982888;28;20516;-87
2023/10/29 09:23:41;;;;;;;1.50;0.83;;;;;;;;;;4960137;28;20629;-86
2023/10/29 09:26:11;;;;;;;1.50;0.90;;;;;;;;;;4960612;28;20513;-87
2023/10/29 09:28:37;;;;;;;1.43;0.90;;;;;;;;;;4978940;28;20664;-85
2023/10/29 09:31:04;;;;;;;1.50;0.80;;;;;;;;;;4996567;28;20248;-87
2023/10/29 09:33:32;;;;;;;1.10;0.80;;;;;;;;;;4963923;28;20221;-86
2023/10/29 09:35:57;;;;;;;1.53;0.90;;;;;;;;;;4959787;28;20225;-86
2023/10/29 09:38:23;;;;;;;1.47;0.83;;;;;;;;;;4969290;28;20291;-87
2023/10/29 09:40:51;;;;;;;0.97;0.80;;;;;;;;;;4964924;28;20222;-89
2023/10/29 09:43:16;;;;;;;1.43;0.80;;;;;;;;;;4951905;28;20227;-86
2023/10/29 09:45:45;;;;;;;0.67;0.67;;;;;;;;;;5001777;28;20236;-87
2023/10/29 09:48:15;;;;;;;0.90;0.70;;;;;;;;;;4952238;28;20245;-86
2023/10/29 09:50:42;;;;;;;0.90;0.80;;;;;;;;;;4989760;28;20212;-86
2023/10/29 09:53:12;;;;;;;0.70;0.60;;;;;;;;;;4992811;28;20275;-86
2023/10/29 09:55:40;;;;;;;1.23;0.90;;;;;;;;;;4950616;28;20301;-87
2023/10/29 09:58:06;;;;;;;2.10;0.87;;;;;;;;;;4981025;28;20715;-87
2023/10/29 10:00:32;;;;;;;1.47;0.70;;;;;;;;;;4948494;28;20249;-87
2023/10/29 10:02:58;;;;;;;1.00;0.87;;;;;;;;;;4982443;28;20230;-88
2023/10/29 10:05:29;;;;;;;1.40;0.77;;;;;;;;;;4972533;28;20686;-88
2023/10/29 10:08:00;;;;;;;0.90;0.70;;;;;;;;;;4999115;28;20222;-88
2023/10/29 10:10:41;;;;;;;1.90;0.80;;;;;;;;;;4962180;28;20891;-88
2023/10/29 10:13:07;;;;;;;1.93;0.83;;;;;;;;;;4991641;28;20221;-87
2023/10/29 10:15:37;;;;;;;1.27;0.80;;;;;;;;;;4957072;28;20226;-85
2023/10/29 10:18:05;;;;;;;1.35;0.82;;;;;;;;;;4975606;28;20228;-87
2023/10/29 10:20:31;;;;;;;1.80;0.80;;;;;;;;;;4968586;28;20292;-86
2023/10/29 10:23:01;;;;;;;0.83;0.80;;;;;;;;;;4971758;28;20236;-86
2023/10/29 10:25:27;;;;;;;1.47;0.70;;;;;;;;;;4964926;28;20241;-88
2023/10/29 10:27:55;;;;;;;1.20;0.80;;;;;;;;;;5006142;28;20224;-85
2023/10/29 10:30:29;;;;;;;2.30;0.80;;;;;;;;;;4953075;28;20592;-86
2023/10/29 10:33:14;;;;;;;4.27;0.87;;;;;;;;;;4968466;28;20539;-88
2023/10/29 10:35:41;;;;;;;0.80;0.63;;;;;;;;;;4985942;28;20683;-87
2023/10/29 10:38:10;;;;;;;1.73;0.88;;;;;;;;;;4951829;28;20247;-85
2023/10/29 10:40:35;;;;;;;0.70;0.70;;;;;;;;;;4937118;28;20226;-87
2023/10/29 10:43:01;;;;;;;6.63;0.90;;;;;;;;;;4968435;28;20228;-84
2023/10/29 10:45:27;;;;;;;6.45;1.23;;;;;;;;;;4940877;28;20225;-87
2023/10/29 10:47:57;;;;;;;1.20;0.80;;;;;;;;;;4944882;28;20969;-88
2023/10/29 10:50:25;;;;;;;1.00;0.80;;;;;;;;;;4997741;28;20225;-87
2023/10/29 10:52:54;;;;;;;1.90;0.73;;;;;;;;;;4971862;28;21042;-87
2023/10/29 10:55:20;;;;;;;1.20;0.82;;;;;;;;;;4948868;28;20241;-87
2023/10/29 10:57:47;;;;;;;0.60;0.60;;;;;;;;;;4970376;28;20259;-88
2023/10/29 11:00:16;;;;;;;1.95;0.80;;;;;;;;;;4951617;28;20218;-88
2023/10/29 11:02:42;;;;;;;1.77;0.70;;;;;;;;;;4966523;28;20340;-87
2023/10/29 11:05:11;;;;;;;2.70;0.93;;;;;;;;;;4944921;28;20226;-85
2023/10/29 11:07:37;;;;;;;1.13;0.70;;;;;;;;;;4965881;28;20233;-87
2023/10/29 11:10:08;;;;;;;1.25;0.73;;;;;;;;;;4956415;28;20221;-86
2023/10/29 11:12:37;;;;;;;1.02;0.65;;;;;;;;;;4972173;28;20237;-86
2023/10/29 11:15:19;;;;;;;2.75;1.52;;;;;;;;;;4966580;28;20289;-86
2023/10/29 11:18:03;;;;;;;2.05;1.08;;;;;;;;;;4979913;28;20257;-86
2023/10/29 11:20:49;;;;;;;1.67;0.90;;;;;;;;;;4981578;28;20317;-86
2023/10/29 11:23:15;;;;;;;1.55;1.00;;;;;;;;;;5007996;28;20229;-84
2023/10/29 11:25:41;;;;;;;1.48;0.85;;;;;;;;;;4977700;28;20727;-83
2023/10/29 11:28:27;;;;;;;1.42;0.90;;;;;;;;;;4968022;28;20305;-86
2023/10/29 11:31:13;;;;;;;2.05;1.00;;;;;;;;;;4990147;28;20221;-88
2023/10/29 11:33:40;;;;;;;1.95;0.70;;;;;;;;;;4977852;28;20235;-87
2023/10/29 11:36:34;;;;;;;1.20;1.10;;;;;;;;;;4965149;28;20229;-86
2023/10/29 11:39:15;;;;;;;1.48;0.85;;;;;;;;;;4980713;28;20705;-86
2023/10/29 11:41:41;;;;;;;1.77;0.70;;;;;;;;;;4997672;28;20229;-88
2023/10/29 11:44:23;;;;;;;2.35;1.25;;;;;;;;;;4978201;28;20247;-87
2023/10/29 11:47:01;;;;;;;0.88;0.82;;;;;;;;;;4987513;28;20278;-84
2023/10/29 11:49:27;;;;;;;1.10;0.85;;;;;;;;;;4976882;28;20228;-86
2023/10/29 11:52:02;;;;;;;1.42;0.88;;;;;;;;;;4976163;28;20288;-87
2023/10/29 11:54:32;;;;;;;0.88;0.68;;;;;;;;;;4973959;28;20229;-86
2023/10/29 11:56:58;;;;;;;2.15;1.15;;;;;;;;;;4964257;28;20758;-86
2023/10/29 11:59:26;;;;;;;1.88;0.88;;;;;;;;;;4965725;28;20222;-87
2023/10/29 12:01:54;;;;;;;3.17;1.00;;;;;;;;;;4984070;28;20217;-89
2023/10/29 12:04:29;;;;;;;2.83;1.02;;;;;;;;;;4948005;28;20218;-86
2023/10/29 12:06:56;;;;;;;2.08;0.77;;;;;;;;;;4985082;28;20252;-85
2023/10/29 12:09:27;;;;;;;2.08;1.13;;;;;;;;;;4951783;28;20245;-87
2023/10/29 12:11:53;;;;;;;1.60;0.80;;;;;;;;;;4982189;28;20706;-86
2023/10/29 12:14:41;;;;;;;3.72;3.38;;;;;;;;;;4964260;28;20247;-86
2023/10/29 12:17:07;;;;;;;2.47;1.90;;;;;;;;;;4957895;28;20245;-87
2023/10/29 12:19:45;;;;;;;2.75;0.90;;;;;;;;;;4975364;28;20234;-84
2023/10/29 12:22:19;;;;;;;1.17;0.80;;;;;;;;;;4961269;28;20210;-88
2023/10/29 12:24:45;;;;;;;2.67;1.05;;;;;;;;;;5001463;28;20217;-86
2023/10/29 12:27:12;;;;;;;8.05;2.65;;;;;;;;;;4955864;28;20198;-88
2023/10/29 12:29:37;;;;;;;1.67;1.58;;;;;;;;;;4992493;28;20221;-85
2023/10/29 12:32:03;;;;;;;6.25;2.90;;;;;;;;;;5009541;28;20224;-84
2023/10/29 12:34:52;;;;;;;6.03;1.88;;;;;;;;;;4963767;28;20229;-87
2023/10/29 12:37:24;;;;;;;2.33;0.85;;;;;;;;;;4987303;28;20214;-86
2023/10/29 12:39:55;;;;;;;1.13;0.85;;;;;;;;;;4998839;28;20208;-86
2023/10/29 12:42:41;;;;;;;0.82;0.70;;;;;;;;;;4986129;28;20223;-85
2023/10/29 12:45:08;;;;;;;4.40;2.05;;;;;;;;;;4976455;28;20228;-85
2023/10/29 12:47:34;;;;;;;1.20;0.70;;;;;;;;;;4974783;28;20299;-87
2023/10/29 12:50:04;;;;;;;2.97;1.52;;;;;;;;;;4956326;28;20233;-85
2023/10/29 12:52:32;;;;;;;2.00;1.30;;;;;;;;;;4959965;28;20225;-85
2023/10/29 12:55:00;;;;;;;2.30;1.23;;;;;;;;;;4962909;28;20224;-87
2023/10/29 12:57:25;;;;;;;0.93;0.70;;;;;;;;;;4980104;28;20235;-87
2023/10/29 12:59:51;;;;;;;2.95;0.90;;;;;;;;;;4962165;28;20221;-87
2023/10/29 13:02:23;;;;;;;0.55;0.55;;;;;;;;;;4987825;28;20244;-87
2023/10/29 13:04:51;;;;;;;1.77;0.80;;;;;;;;;;4947267;28;20229;-88
2023/10/29 13:07:19;;;;;;;1.67;0.52;;;;;;;;;;4956940;28;20209;-86
2023/10/29 13:09:48;;;;;;;1.63;0.50;;;;;;;;;;4965654;28;20229;-86
2023/10/29 13:12:15;;;;;;;3.55;1.17;;;;;;;;;;4951743;28;20213;-86
2023/10/29 13:14:45;;;;;;;1.70;1.00;;;;;;;;;;4964758;28;20217;-88
2023/10/29 13:17:14;;;;;;;2.03;0.57;;;;;;;;;;4973225;28;20221;-86
2023/10/29 13:19:39;;;;;;;1.05;0.68;;;;;;;;;;4980863;28;20234;-85
2023/10/29 13:22:07;;;;;;;0.70;0.63;;;;;;;;;;4945161;28;20210;-85
2023/10/29 13:24:35;;;;;;;0.88;0.70;;;;;;;;;;4972961;28;20785;-87
2023/10/29 13:27:06;;;;;;;0.75;0.60;;;;;;;;;;4948268;28;20264;-86
2023/10/29 13:29:33;;;;;;;1.33;0.60;;;;;;;;;;4968326;28;20286;-87
2023/10/29 13:32:01;;;;;;;1.52;0.77;;;;;;;;;;4967302;28;20248;-87
2023/10/29 13:34:27;;;;;;;2.05;0.40;;;;;;;;;;4968360;28;20230;-87
2023/10/29 13:36:54;;;;;;;0.77;0.65;;;;;;;;;;4949742;28;20702;-87
2023/10/29 13:39:20;;;;;;;2.50;0.70;;;;;;;;;;4947775;28;20310;-86
2023/10/29 13:41:48;;;;;;;0.50;0.50;;;;;;;;;;4949790;28;20227;-89
2023/10/29 13:44:15;;;;;;;1.17;0.70;;;;;;;;;;4972372;28;20640;-87
2023/10/29 13:46:42;;;;;;;2.03;0.77;;;;;;;;;;4963624;28;20292;-89
2023/10/29 13:49:07;;;;;;;1.52;1.00;;;;;;;;;;4974457;28;20647;-87
2023/10/29 13:51:36;;;;;;;1.52;0.90;;;;;;;;;;4962623;28;20228;-88
2023/10/29 13:54:04;;;;;;;1.30;0.75;;;;;;;;;;4970703;28;20674;-87
2023/10/29 13:56:30;;;;;;;3.92;1.40;;;;;;;;;;4988302;28;20230;-87
2023/10/29 13:58:58;;;;;;;0.65;0.65;;;;;;;;;;4946761;28;20228;-84
2023/10/29 14:01:26;;;;;;;1.17;1.00;;;;;;;;;;4950590;28;20240;-84
2023/10/29 14:03:57;;;;;;;1.50;1.30;;;;;;;;;;4962999;28;20234;-86
2023/10/29 14:06:23;;;;;;;1.48;1.15;;;;;;;;;;4957258;28;20226;-87
2023/10/29 14:08:49;;;;;;;4.50;2.97;;;;;;;;;;4966000;28;20226;-87
2023/10/29 14:11:16;;;;;;;6.97;6.28;;;;;;;;;;4970163;28;20268;-87
2023/10/29 14:13:44;;;;;;;6.10;5.32;;;;;;;;;;4970926;28;20301;-85
2023/10/29 14:16:10;;;;;;;3.67;2.75;;;;;;;;;;4940637;28;20225;-83
2023/10/29 14:18:38;;;;;;;1.92;1.80;;;;;;;;;;4963986;28;20280;-86
2023/10/29 14:21:03;;;;;;;1.25;0.90;;;;;;;;;;4964610;28;20301;-87
2023/10/29 14:23:31;;;;;;;0.75;0.63;;;;;;;;;;4964309;28;20245;-84
2023/10/29 14:25:57;;;;;;;3.63;0.60;;;;;;;;;;4967554;28;20218;-79
2023/10/29 14:28:22;;;;;;;1.95;0.73;;;;;;;;;;4989605;28;20228;-79
2023/10/29 14:30:48;;;;;;;0.65;0.60;;;;;;;;;;4978207;28;20272;-78
2023/10/29 14:33:13;;;;;;;0.82;0.60;;;;;;;;;;4979021;28;20222;-79
2023/10/29 14:35:44;;;;;;;1.10;0.63;;;;;;;;;;4980754;28;20277;-79
2023/10/29 14:38:09;;;;;;;0.95;0.60;;;;;;;;;;4991042;28;20237;-80
2023/10/29 14:40:48;;;;;;;0.65;0.50;;;;;;;;;;4964527;28;20237;-81
2023/10/29 14:43:13;;;;;;;1.27;0.60;;;;;;;;;;4977438;28;20231;-80
2023/10/29 14:45:43;;;;;;;0.93;0.70;;;;;;;;;;4990947;28;20965;-79
2023/10/29 14:48:09;;;;;;;0.63;0.50;;;;;;;;;;4964532;28;20228;-78
2023/10/29 14:50:35;;;;;;;1.23;0.60;;;;;;;;;;4980307;28;20225;-78